MSC Alicante — A8YN7 — position and weather

sailwx.info

Track history (hours):
 
Tides and Currents Weather Stations Pressure Air Temp Water Temp Dewpoint Dewpoint Depression Visibility Wind Speed Wind Dir Waves Ship Positions

MSC Alicante

Last reported at 2018-Jul-21 18:59 UTC. Time now 2018-Jul-21 21:01 UTC.
Position N 57°41' E 009°25'.

Length 270 m; draft 11.9 m.

Type: Ship (hazmat cat A). MMSI: 636092212.

Date/timePositionNaut miles runAvg speedWind from/ knotsBaromVisibWave heightAir tempDewpointWater temp
2018-Jul-21 18:59N 57°41' E 009°25'917.4
2018-Jul-21 18:29N 57°45' E 009°39'1017.0
2018-Jul-21 17:53N 57°47' E 009°58'716.7
2018-Jul-21 17:29N 57°47' E 010°11'816.8
2018-Jul-21 17:00N 57°48' E 010°25'815.9
2018-Jul-21 16:30N 57°49' E 010°40'610.9
2018-Jul-21 16:00N 57°45' E 010°47'4 7.7
2018-Jul-21 15:29N 57°41' E 010°51'917.5
2018-Jul-21 15:00N 57°37' E 011°04'917.9
2018-Jul-21 14:30N 57°32' E 011°18'1717.2
2018-Jul-21 13:30N 57°17' E 011°33'918.0
2018-Jul-21 13:00N 57°08' E 011°39'918.3
2018-Jul-21 12:30N 56°60' E 011°45'4617.5
2018-Jul-21 09:54N 56°16' E 011°22'4216.8
2018-Jul-21 07:24N 55°39' E 010°47'718.6
2018-Jul-21 07:01N 55°32' E 010°52'918.4
2018-Jul-21 06:30N 55°24' E 011°00'917.7
2018-Jul-21 06:00N 55°16' E 011°05'815.9
2018-Jul-21 05:31N 55°08' E 010°60'918.3
2018-Jul-21 05:01N 54°59' E 010°58'918.1
2018-Jul-21 04:31N 54°51' E 010°50'918.6
2018-Jul-21 04:01N 54°42' E 010°47'918.6
2018-Jul-21 03:30N 54°36' E 010°60'918.6
2018-Jul-21 03:00N 54°35' E 011°16'918.9
2018-Jul-21 02:31N 54°31' E 011°30'918.6
2018-Jul-21 02:00N 54°27' E 011°45'918.4
2018-Jul-21 01:31N 54°26' E 012°01'815.9
2018-Jul-21 01:00N 54°30' E 012°13'715.0
2018-Jul-21 00:30N 54°37' E 012°17'815.8
2018-Jul-20 23:58N 54°42' E 012°29'3818.0
2018-Jul-20 21:52N 54°46' E 013°34'818.6
2018-Jul-20 21:26N 54°44' E 013°47'918.6
2018-Jul-20 20:56N 54°41' E 014°03'1218.5
2018-Jul-20 20:18N 54°38' E 014°22'518.2
2018-Jul-20 20:00N 54°38' E 014°31'918.5
2018-Jul-20 19:30N 54°39' E 014°48'918.6
2018-Jul-20 19:00N 54°41' E 015°03'918.6
2018-Jul-20 18:30N 54°42' E 015°19'814.5
2018-Jul-20 17:57N 54°43' E 015°33'716.6
2018-Jul-20 17:30N 54°45' E 015°45'918.0
2018-Jul-20 17:00N 54°46' E 016°01'815.3
2018-Jul-20 16:30N 54°47' E 016°14'918.7
2018-Jul-20 16:00N 54°48' E 016°30'1019.9
2018-Jul-20 15:30N 54°50' E 016°47'1019.5
2018-Jul-20 15:00N 54°53' E 017°03'917.6
2018-Jul-20 14:29N 54°55' E 017°19'1019.6
2018-Jul-20 13:57N 54°58' E 017°36'1519.3
2018-Jul-20 13:11N 54°58' E 018°02'619.4
2018-Jul-20 12:54N 54°58' E 018°12'819.3
2018-Jul-20 12:29N 54°58' E 018°26'816.7
2018-Jul-20 12:00N 54°56' E 018°39'1019.4
2018-Jul-20 11:30N 54°53' E 018°55'1019.6
2018-Jul-20 11:00N 54°49' E 019°10'1019.7
2018-Jul-20 10:30N 54°45' E 019°26'13 4.0
2018-Jul-20 07:17N 54°39' E 019°46'0 0.0
2018-Jul-20 06:56N 54°39' E 019°46'0 0.0
2018-Jul-20 06:20N 54°39' E 019°46'0 0.1
2018-Jul-20 05:59N 54°39' E 019°46'0 0.0
2018-Jul-20 05:26N 54°39' E 019°46'0 0.0
2018-Jul-20 04:59N 54°39' E 019°46'0 0.0
2018-Jul-20 04:11N 54°39' E 019°46'0 0.0
2018-Jul-20 03:59N 54°39' E 019°46'0 0.0
2018-Jul-20 03:05N 54°39' E 019°46'0 0.0
2018-Jul-20 02:44N 54°39' E 019°46'0 0.0
2018-Jul-20 02:23N 54°39' E 019°46'0 0.0
2018-Jul-20 01:50N 54°39' E 019°46'0 0.0
2018-Jul-20 01:26N 54°39' E 019°46'0 0.0
2018-Jul-20 00:56N 54°39' E 019°46'0 0.0
2018-Jul-19 23:59N 54°39' E 019°46'0 0.0
2018-Jul-19 23:29N 54°39' E 019°46'0 0.0
2018-Jul-19 22:59N 54°39' E 019°46'0 0.0
2018-Jul-19 22:29N 54°39' E 019°46'0 0.0
2018-Jul-19 21:59N 54°39' E 019°46'0 0.0
2018-Jul-19 21:29N 54°39' E 019°46'0 0.0
2018-Jul-19 20:44N 54°39' E 019°46'0 0.0
2018-Jul-19 20:29N 54°39' E 019°46'0 0.0
2018-Jul-19 19:59N 54°39' E 019°46'0 0.0
2018-Jul-19 19:29N 54°39' E 019°46'0 0.1
2018-Jul-19 18:59N 54°39' E 019°46'0 0.0
2018-Jul-19 18:20N 54°39' E 019°46'0 0.0
2018-Jul-19 17:59N 54°39' E 019°46'0 0.0
2018-Jul-19 17:29N 54°39' E 019°46'0 0.0
2018-Jul-19 16:59N 54°39' E 019°46'0 0.1
2018-Jul-19 16:29N 54°39' E 019°46'0 0.0
2018-Jul-19 15:59N 54°39' E 019°46'0 0.1
2018-Jul-19 15:29N 54°39' E 019°45'0 0.0
2018-Jul-19 14:59N 54°39' E 019°45'0 0.1
2018-Jul-19 13:59N 54°39' E 019°46'0 0.1
2018-Jul-19 13:29N 54°39' E 019°45'0 0.1
2018-Jul-19 12:59N 54°39' E 019°45'0 0.0
2018-Jul-19 12:29N 54°39' E 019°45'0 0.1
2018-Jul-19 11:59N 54°39' E 019°46'0 0.1
2018-Jul-19 11:26N 54°39' E 019°45'0 0.0
2018-Jul-19 11:00N 54°39' E 019°45'0 0.4
2018-Jul-19 10:30N 54°39' E 019°45'3 5.9
2018-Jul-19 10:01N 54°40' E 019°41'918.0
2018-Jul-19 09:30N 54°48' E 019°37'1019.8
2018-Jul-19 09:01N 54°58' E 019°37'919.0
2018-Jul-19 08:31N 55°07' E 019°42'1019.8
2018-Jul-19 08:00N 55°16' E 019°50'1019.9
2018-Jul-19 07:30N 55°25' E 019°59'1019.7
2018-Jul-19 07:00N 55°33' E 020°08'1019.4
2018-Jul-19 06:30N 55°37' E 020°23'1019.7
2018-Jul-19 06:00N 55°41' E 020°39'1017.9
2018-Jul-19 05:28N 55°44' E 020°56'48 1.3
2018-Jul-17 16:38N 55°17' E 019°46'220.3
2018-Jul-17 16:30N 55°15' E 019°44'1020.6
2018-Jul-17 16:00N 55°07' E 019°32'1120.8
2018-Jul-17 15:30N 54°58' E 019°21'1020.9
2018-Jul-17 15:00N 54°50' E 019°11'1021.0
2018-Jul-17 14:30N 54°42' E 018°60'1020.3
2018-Jul-17 14:00N 54°33' E 018°50'713.6
2018-Jul-17 13:31N 54°32' E 018°39'4 7.7
2018-Jul-17 13:01N 54°32' E 018°32'1 1.7
2018-Jul-17 12:29N 54°33' E 018°31'0 0.0
2018-Jul-17 11:59N 54°33' E 018°31'0 0.0
2018-Jul-17 11:29N 54°33' E 018°31'0 0.0
2018-Jul-17 10:59N 54°33' E 018°31'0 0.0
2018-Jul-17 10:29N 54°33' E 018°31'0 0.0
2018-Jul-17 09:59N 54°33' E 018°31'0 0.0
2018-Jul-17 09:29N 54°33' E 018°31'0 0.0
2018-Jul-17 08:59N 54°33' E 018°31'0 0.0
2018-Jul-17 08:29N 54°33' E 018°31'0 0.0
2018-Jul-17 07:59N 54°33' E 018°31'0 0.0
2018-Jul-17 07:29N 54°33' E 018°31'0 0.0
2018-Jul-17 06:59N 54°33' E 018°31'0 0.0
2018-Jul-17 06:29N 54°33' E 018°31'0 0.0
2018-Jul-17 05:59N 54°33' E 018°31'0 0.0
2018-Jul-17 05:29N 54°33' E 018°31'0 0.0
2018-Jul-17 04:59N 54°33' E 018°31'0 0.0
2018-Jul-17 04:29N 54°33' E 018°31'0 0.0
2018-Jul-17 03:59N 54°33' E 018°31'0 0.0
2018-Jul-17 03:29N 54°33' E 018°31'0 0.0
2018-Jul-17 02:59N 54°33' E 018°31'0 0.1
2018-Jul-17 02:26N 54°33' E 018°31'0 0.1
2018-Jul-17 01:56N 54°33' E 018°31'0 0.0
2018-Jul-17 01:23N 54°33' E 018°31'0 0.0
2018-Jul-17 00:59N 54°33' E 018°31'0 0.0
2018-Jul-17 00:29N 54°33' E 018°31'0 0.0
2018-Jul-16 23:29N 54°33' E 018°31'0 0.0
2018-Jul-16 22:59N 54°33' E 018°31'0 0.0
2018-Jul-16 22:29N 54°33' E 018°31'0 0.0
2018-Jul-16 21:59N 54°33' E 018°31'0 0.0
2018-Jul-16 21:29N 54°33' E 018°31'0 0.0
2018-Jul-16 20:59N 54°33' E 018°31'0 0.0
2018-Jul-16 20:29N 54°33' E 018°31'0 0.0
2018-Jul-16 19:59N 54°33' E 018°31'0 0.0
2018-Jul-16 19:26N 54°33' E 018°31'0 0.0
2018-Jul-16 18:59N 54°33' E 018°31'0 0.0
2018-Jul-16 18:29N 54°33' E 018°31'0 0.0
2018-Jul-16 17:59N 54°33' E 018°31'0 0.0
2018-Jul-16 17:29N 54°33' E 018°31'0 0.0
2018-Jul-16 16:59N 54°33' E 018°31'0 0.0
2018-Jul-16 16:29N 54°33' E 018°31'0 0.0
2018-Jul-16 15:59N 54°33' E 018°31'0 0.0
2018-Jul-16 15:26N 54°33' E 018°31'0 0.0
2018-Jul-16 14:59N 54°33' E 018°31'0 0.0
2018-Jul-16 14:29N 54°33' E 018°31'0 0.0
2018-Jul-16 13:59N 54°33' E 018°31'0 0.0
2018-Jul-16 13:29N 54°33' E 018°31'0 0.0
2018-Jul-16 12:59N 54°33' E 018°31'0 0.0
2018-Jul-16 12:29N 54°33' E 018°31'0 0.0
2018-Jul-16 11:59N 54°33' E 018°31'0 0.0
2018-Jul-16 11:29N 54°33' E 018°31'0 0.0
2018-Jul-16 10:59N 54°33' E 018°31'0 0.0
2018-Jul-16 10:29N 54°33' E 018°31'0 0.0
2018-Jul-16 09:59N 54°33' E 018°31'0 0.0
2018-Jul-16 09:26N 54°33' E 018°31'0 0.0
2018-Jul-16 08:59N 54°33' E 018°31'0 0.0
2018-Jul-16 08:29N 54°33' E 018°31'0 0.0
2018-Jul-16 07:59N 54°33' E 018°31'0 0.0
2018-Jul-16 07:29N 54°33' E 018°31'0 0.0
2018-Jul-16 06:59N 54°33' E 018°31'0 0.0
2018-Jul-16 06:26N 54°33' E 018°31'0 0.0
2018-Jul-16 05:59N 54°33' E 018°31'0 0.0
2018-Jul-16 05:29N 54°33' E 018°31'0 0.0
2018-Jul-16 04:59N 54°33' E 018°31'0 0.0
2018-Jul-16 04:29N 54°33' E 018°31'0 0.0
2018-Jul-16 03:59N 54°33' E 018°31'0 0.0
2018-Jul-16 03:29N 54°33' E 018°31'0 0.0
2018-Jul-16 03:00N 54°33' E 018°31'0 0.5
2018-Jul-16 02:30N 54°32' E 018°31'2 3.9
2018-Jul-16 02:00N 54°32' E 018°34'3 6.2
2018-Jul-16 01:30N 54°32' E 018°40'3 6.6
2018-Jul-16 01:00N 54°32' E 018°45'611.1
2018-Jul-16 00:30N 54°36' E 018°53'611.9
2018-Jul-16 00:00N 54°41' E 018°58'510.0
2018-Jul-15 23:30N 54°46' E 018°58'713.7
2018-Jul-15 23:00N 54°50' E 018°49'714.1
2018-Jul-15 22:30N 54°55' E 018°39'713.9
2018-Jul-15 22:00N 54°58' E 018°29'714.1
2018-Jul-15 21:30N 54°58' E 018°17'714.1
2018-Jul-15 21:00N 54°58' E 018°04'714.2
2018-Jul-15 20:30N 54°58' E 017°52'714.5
2018-Jul-15 20:00N 54°57' E 017°40'714.7
2018-Jul-15 19:30N 54°54' E 017°28'714.7
2018-Jul-15 19:00N 54°52' E 017°15'714.9
2018-Jul-15 18:31N 54°51' E 017°03'714.5
2018-Jul-15 18:00N 54°49' E 016°50'714.4
2018-Jul-15 17:30N 54°48' E 016°38'714.4
2018-Jul-15 17:00N 54°46' E 016°26'714.5
2018-Jul-15 16:30N 54°45' E 016°13'714.4
2018-Jul-15 16:00N 54°44' E 016°01'714.3
2018-Jul-15 15:30N 54°43' E 015°49'714.4
2018-Jul-15 15:00N 54°42' E 015°37'714.4
2018-Jul-15 14:30N 54°41' E 015°24'714.4
2018-Jul-15 14:00N 54°40' E 015°12'714.7
2018-Jul-15 13:30N 54°39' E 014°59'714.7
2018-Jul-15 13:00N 54°38' E 014°47'714.8
2018-Jul-15 12:30N 54°37' E 014°34'1314.6
2018-Jul-15 11:37N 54°38' E 014°12'215.1
2018-Jul-15 11:28N 54°39' E 014°08'915.2
2018-Jul-15 10:54N 54°41' E 013°54'1215.5
2018-Jul-15 10:08N 54°45' E 013°34'215.1
2018-Jul-15 10:00N 54°45' E 013°31'714.7
2018-Jul-15 09:30N 54°45' E 013°18'1414.3
2018-Jul-15 08:32N 54°46' E 012°54'414.8
2018-Jul-15 08:17N 54°46' E 012°48'414.3
2018-Jul-15 08:00N 54°45' E 012°41'814.8
2018-Jul-15 07:30N 54°41' E 012°30'815.0
2018-Jul-15 06:58N 54°37' E 012°19'1113.9
2018-Jul-15 06:12N 54°27' E 012°12'313.5
2018-Jul-15 06:00N 54°25' E 012°09'815.0
2018-Jul-15 05:30N 54°25' E 011°56'714.7
2018-Jul-15 05:00N 54°26' E 011°43'715.0
2018-Jul-15 04:30N 54°29' E 011°32'714.6
2018-Jul-15 04:00N 54°32' E 011°21'714.7
2018-Jul-15 03:30N 54°35' E 011°09'714.1
2018-Jul-15 03:00N 54°36' E 010°57'714.5
2018-Jul-15 02:30N 54°40' E 010°47'713.8
2018-Jul-15 02:00N 54°47' E 010°49'715.0
2018-Jul-15 01:30N 54°54' E 010°52'714.1
2018-Jul-15 01:00N 55°00' E 010°59'714.6
2018-Jul-15 00:30N 55°07' E 010°59'713.6
2018-Jul-15 00:00N 55°13' E 011°06'815.9
2018-Jul-14 23:29N 55°21' E 011°02'7316.3
2018-Jul-14 19:00N 56°31' E 011°38'1619.1
2018-Jul-14 18:09N 56°45' E 011°52'319.5
2018-Jul-14 18:00N 56°48' E 011°50'1019.1
2018-Jul-14 17:28N 56°58' E 011°44'919.0
2018-Jul-14 17:00N 57°06' E 011°38'918.9
2018-Jul-14 16:30N 57°15' E 011°31'918.9
2018-Jul-14 16:00N 57°24' E 011°27'1020.2
2018-Jul-14 15:30N 57°31' E 011°14'1121.0
2018-Jul-14 15:00N 57°38' E 010°60'2121.3
2018-Jul-14 14:00N 57°54' E 010°32'1020.7
2018-Jul-14 13:30N 57°58' E 010°14'1121.4
2018-Jul-14 13:00N 57°57' E 009°54'1122.0
2018-Jul-14 12:30N 57°52' E 009°36'1122.1
2018-Jul-14 12:00N 57°46' E 009°18'1121.9
2018-Jul-14 11:30N 57°40' E 009°01'1121.5
2018-Jul-14 10:58N 57°35' E 008°42'1521.4
2018-Jul-14 10:18N 57°28' E 008°19'621.0
2018-Jul-14 10:00N 57°25' E 008°09'1720.0
2018-Jul-14 09:08N 57°14' E 007°44'5519.6
2018-Jul-14 06:20N 56°21' E 007°13'820.4
2018-Jul-14 05:57N 56°14' E 007°11'14320.1
2018-Jul-13 22:49N 53°52' E 007°49'411.8
2018-Jul-13 22:30N 53°52' E 007°55'815.9
2018-Jul-13 22:00N 53°48' E 008°08'816.7
2018-Jul-13 21:30N 53°43' E 008°18'612.4
2018-Jul-13 21:00N 53°38' E 008°26'4 8.0
2018-Jul-13 20:29N 53°36' E 008°31'0 0.1
2018-Jul-13 19:59N 53°36' E 008°31'0 0.0
2018-Jul-13 19:29N 53°36' E 008°31'0 0.0
2018-Jul-13 18:59N 53°36' E 008°31'0 0.0
2018-Jul-13 18:29N 53°36' E 008°31'0 0.0
2018-Jul-13 17:59N 53°36' E 008°31'0 0.0
2018-Jul-13 17:29N 53°36' E 008°31'0 0.0
2018-Jul-13 16:59N 53°36' E 008°31'0 0.0
2018-Jul-13 16:29N 53°36' E 008°31'0 0.0
2018-Jul-13 15:56N 53°36' E 008°31'0 0.0
2018-Jul-13 15:29N 53°36' E 008°31'0 0.0
2018-Jul-13 14:59N 53°36' E 008°31'0 0.0
2018-Jul-13 14:29N 53°36' E 008°31'0 0.0
2018-Jul-13 13:29N 53°36' E 008°31'0 0.0
2018-Jul-13 12:59N 53°36' E 008°31'0 0.0
2018-Jul-13 12:29N 53°36' E 008°31'0 0.0
2018-Jul-13 11:59N 53°36' E 008°31'0 0.0
2018-Jul-13 11:29N 53°36' E 008°31'0 0.1
2018-Jul-13 10:59N 53°36' E 008°31'1 2.2
2018-Jul-13 10:29N 53°35' E 008°32'0 0.0
2018-Jul-13 09:59N 53°35' E 008°32'0 0.0
2018-Jul-13 09:28N 53°35' E 008°32'0 0.0
2018-Jul-13 08:59N 53°35' E 008°32'0 0.0
2018-Jul-13 08:28N 53°35' E 008°32'0 0.0
2018-Jul-13 07:58N 53°35' E 008°32'0 0.0
2018-Jul-13 07:28N 53°35' E 008°32'0 0.0
2018-Jul-13 06:59N 53°35' E 008°32'0 0.0
2018-Jul-13 06:29N 53°35' E 008°32'0 0.0
2018-Jul-13 05:58N 53°35' E 008°32'0 0.0
2018-Jul-13 05:28N 53°35' E 008°32'0 0.0
2018-Jul-13 04:59N 53°35' E 008°32'0 0.0
2018-Jul-13 04:29N 53°35' E 008°32'0 0.0
2018-Jul-13 03:59N 53°35' E 008°32'0 0.0
2018-Jul-13 03:29N 53°35' E 008°32'0 0.0
2018-Jul-13 02:58N 53°35' E 008°32'0 0.0
2018-Jul-13 02:28N 53°35' E 008°32'0 0.0
2018-Jul-13 01:58N 53°35' E 008°32'0 0.0
2018-Jul-13 01:28N 53°35' E 008°32'0 0.0
2018-Jul-13 00:58N 53°35' E 008°32'0 0.0
2018-Jul-13 00:28N 53°35' E 008°32'0 0.1
2018-Jul-12 23:59N 53°35' E 008°32'0 0.1
2018-Jul-12 23:29N 53°35' E 008°32'0 0.0
2018-Jul-12 22:58N 53°35' E 008°32'0 0.0
2018-Jul-12 22:28N 53°35' E 008°32'0 0.0
2018-Jul-12 22:00N 53°35' E 008°32'0 0.0
2018-Jul-12 21:30N 53°35' E 008°32'0 0.6
2018-Jul-12 21:00N 53°35' E 008°32'510.2
2018-Jul-12 20:30N 53°38' E 008°26'917.6
2018-Jul-12 20:00N 53°44' E 008°15'917.5
2018-Jul-12 19:30N 53°50' E 008°04'815.3
2018-Jul-12 19:00N 53°52' E 007°51'510.7
2018-Jul-12 18:30N 53°53' E 007°43'816.1
2018-Jul-12 18:01N 53°54' E 007°29'1019.4
2018-Jul-12 17:30N 53°52' E 007°13'1019.5
2018-Jul-12 17:00N 53°50' E 006°57'1019.5
2018-Jul-12 16:29N 53°48' E 006°40'1019.8
2018-Jul-12 15:59N 53°46' E 006°24'1019.5
2018-Jul-12 15:30N 53°43' E 006°09'1119.6
2018-Jul-12 14:57N 53°40' E 005°51'919.8
2018-Jul-12 14:30N 53°37' E 005°37'1019.6
2018-Jul-12 14:01N 53°34' E 005°22'1019.7
2018-Jul-12 13:31N 53°31' E 005°06'1019.6
2018-Jul-12 13:01N 53°27' E 004°51'1118.4
2018-Jul-12 12:24N 53°19' E 004°38'919.6
2018-Jul-12 11:57N 53°11' E 004°31'919.5
2018-Jul-12 11:29N 53°03' E 004°24'919.4
2018-Jul-12 11:00N 52°55' E 004°17'1019.3
2018-Jul-12 10:31N 52°47' E 004°08'1019.5
2018-Jul-12 10:01N 52°39' E 003°59'1019.1
2018-Jul-12 09:30N 52°32' E 003°48'919.0
2018-Jul-12 09:01N 52°26' E 003°35'1019.0
2018-Jul-12 08:30N 52°18' E 003°28'919.0
2018-Jul-12 08:01N 52°08' E 003°26'918.9
2018-Jul-12 07:31N 51°59' E 003°24'918.0
2018-Jul-12 07:00N 51°50' E 003°19'613.1
2018-Jul-12 06:30N 51°44' E 003°15'510.3
2018-Jul-12 06:00N 51°40' E 003°12'815.3
2018-Jul-12 05:30N 51°32' E 003°08'714.5
2018-Jul-12 05:00N 51°27' E 002°60'713.5
2018-Jul-12 04:30N 51°24' E 003°09'918.1
2018-Jul-12 04:00N 51°25' E 003°24'918.5
2018-Jul-12 03:30N 51°26' E 003°38'714.4
2018-Jul-12 03:00N 51°21' E 003°47'713.4
2018-Jul-12 02:31N 51°23' E 003°57'3 6.4
2018-Jul-12 02:00N 51°23' E 004°02'611.8
2018-Jul-12 01:30N 51°24' E 004°12'5 9.2
2018-Jul-12 01:00N 51°20' E 004°16'3 5.2
2018-Jul-12 00:30N 51°18' E 004°16'0 0.0
2018-Jul-12 00:00N 51°18' E 004°16'0 0.0
2018-Jul-11 23:30N 51°18' E 004°16'0 0.0
2018-Jul-11 23:00N 51°18' E 004°16'0 0.0
2018-Jul-11 22:27N 51°18' E 004°16'0 0.0
2018-Jul-11 22:00N 51°18' E 004°16'0 0.0
2018-Jul-11 21:27N 51°18' E 004°16'0 0.0
2018-Jul-11 21:00N 51°18' E 004°16'0 0.0
2018-Jul-11 20:30N 51°18' E 004°16'0 0.0
2018-Jul-11 20:00N 51°18' E 004°16'0 0.0
2018-Jul-11 19:30N 51°18' E 004°16'0 0.0
2018-Jul-11 19:00N 51°18' E 004°16'  
Track history (hours):
 
Tides and Currents Weather Stations Pressure Air Temp Water Temp Dewpoint Dewpoint Depression Visibility Wind Speed Wind Dir Waves Ship Positions

MSC Alicante

Last reported at 2018-Jul-21 18:59 UTC. Time now 2018-Jul-21 21:01 UTC.
Position N 57°41' E 009°25'.

Length 270 m; draft 11.9 m.

Type: Ship (hazmat cat A). MMSI: 636092212.

Date/timePositionNaut miles runAvg speedWind from/ knotsBaromVisibWave heightAir tempDewpointWater temp
2018-Jul-21 18:59N 57°41' E 009°25'917.4
2018-Jul-21 18:29N 57°45' E 009°39'1017.0
2018-Jul-21 17:53N 57°47' E 009°58'716.7
2018-Jul-21 17:29N 57°47' E 010°11'816.8
2018-Jul-21 17:00N 57°48' E 010°25'815.9
2018-Jul-21 16:30N 57°49' E 010°40'610.9
2018-Jul-21 16:00N 57°45' E 010°47'4 7.7
2018-Jul-21 15:29N 57°41' E 010°51'917.5
2018-Jul-21 15:00N 57°37' E 011°04'917.9
2018-Jul-21 14:30N 57°32' E 011°18'1717.2
2018-Jul-21 13:30N 57°17' E 011°33'918.0
2018-Jul-21 13:00N 57°08' E 011°39'918.3
2018-Jul-21 12:30N 56°60' E 011°45'4617.5
2018-Jul-21 09:54N 56°16' E 011°22'4216.8
2018-Jul-21 07:24N 55°39' E 010°47'718.6
2018-Jul-21 07:01N 55°32' E 010°52'918.4
2018-Jul-21 06:30N 55°24' E 011°00'917.7
2018-Jul-21 06:00N 55°16' E 011°05'815.9
2018-Jul-21 05:31N 55°08' E 010°60'918.3
2018-Jul-21 05:01N 54°59' E 010°58'918.1
2018-Jul-21 04:31N 54°51' E 010°50'918.6
2018-Jul-21 04:01N 54°42' E 010°47'918.6
2018-Jul-21 03:30N 54°36' E 010°60'918.6
2018-Jul-21 03:00N 54°35' E 011°16'918.9
2018-Jul-21 02:31N 54°31' E 011°30'918.6
2018-Jul-21 02:00N 54°27' E 011°45'918.4
2018-Jul-21 01:31N 54°26' E 012°01'815.9
2018-Jul-21 01:00N 54°30' E 012°13'715.0
2018-Jul-21 00:30N 54°37' E 012°17'815.8
2018-Jul-20 23:58N 54°42' E 012°29'3818.0
2018-Jul-20 21:52N 54°46' E 013°34'818.6
2018-Jul-20 21:26N 54°44' E 013°47'918.6
2018-Jul-20 20:56N 54°41' E 014°03'1218.5
2018-Jul-20 20:18N 54°38' E 014°22'518.2
2018-Jul-20 20:00N 54°38' E 014°31'918.5
2018-Jul-20 19:30N 54°39' E 014°48'918.6
2018-Jul-20 19:00N 54°41' E 015°03'918.6
2018-Jul-20 18:30N 54°42' E 015°19'814.5
2018-Jul-20 17:57N 54°43' E 015°33'716.6
2018-Jul-20 17:30N 54°45' E 015°45'918.0
2018-Jul-20 17:00N 54°46' E 016°01'815.3
2018-Jul-20 16:30N 54°47' E 016°14'918.7
2018-Jul-20 16:00N 54°48' E 016°30'1019.9
2018-Jul-20 15:30N 54°50' E 016°47'1019.5
2018-Jul-20 15:00N 54°53' E 017°03'917.6
2018-Jul-20 14:29N 54°55' E 017°19'1019.6
2018-Jul-20 13:57N 54°58' E 017°36'1519.3
2018-Jul-20 13:11N 54°58' E 018°02'619.4
2018-Jul-20 12:54N 54°58' E 018°12'819.3
2018-Jul-20 12:29N 54°58' E 018°26'816.7
2018-Jul-20 12:00N 54°56' E 018°39'1019.4
2018-Jul-20 11:30N 54°53' E 018°55'1019.6
2018-Jul-20 11:00N 54°49' E 019°10'1019.7
2018-Jul-20 10:30N 54°45' E 019°26'13 4.0
2018-Jul-20 07:17N 54°39' E 019°46'0 0.0
2018-Jul-20 06:56N 54°39' E 019°46'0 0.0
2018-Jul-20 06:20N 54°39' E 019°46'0 0.1
2018-Jul-20 05:59N 54°39' E 019°46'0 0.0
2018-Jul-20 05:26N 54°39' E 019°46'0 0.0
2018-Jul-20 04:59N 54°39' E 019°46'0 0.0
2018-Jul-20 04:11N 54°39' E 019°46'0 0.0
2018-Jul-20 03:59N 54°39' E 019°46'0 0.0
2018-Jul-20 03:05N 54°39' E 019°46'0 0.0
2018-Jul-20 02:44N 54°39' E 019°46'0 0.0
2018-Jul-20 02:23N 54°39' E 019°46'0 0.0
2018-Jul-20 01:50N 54°39' E 019°46'0 0.0
2018-Jul-20 01:26N 54°39' E 019°46'0 0.0
2018-Jul-20 00:56N 54°39' E 019°46'0 0.0
2018-Jul-19 23:59N 54°39' E 019°46'0 0.0
2018-Jul-19 23:29N 54°39' E 019°46'0 0.0
2018-Jul-19 22:59N 54°39' E 019°46'0 0.0
2018-Jul-19 22:29N 54°39' E 019°46'0 0.0
2018-Jul-19 21:59N 54°39' E 019°46'0 0.0
2018-Jul-19 21:29N 54°39' E 019°46'0 0.0
2018-Jul-19 20:44N 54°39' E 019°46'0 0.0
2018-Jul-19 20:29N 54°39' E 019°46'0 0.0
2018-Jul-19 19:59N 54°39' E 019°46'0 0.0
2018-Jul-19 19:29N 54°39' E 019°46'0 0.1
2018-Jul-19 18:59N 54°39' E 019°46'0 0.0
2018-Jul-19 18:20N 54°39' E 019°46'0 0.0
2018-Jul-19 17:59N 54°39' E 019°46'0 0.0
2018-Jul-19 17:29N 54°39' E 019°46'0 0.0
2018-Jul-19 16:59N 54°39' E 019°46'0 0.1
2018-Jul-19 16:29N 54°39' E 019°46'0 0.0
2018-Jul-19 15:59N 54°39' E 019°46'0 0.1
2018-Jul-19 15:29N 54°39' E 019°45'0 0.0
2018-Jul-19 14:59N 54°39' E 019°45'0 0.1
2018-Jul-19 13:59N 54°39' E 019°46'0 0.1
2018-Jul-19 13:29N 54°39' E 019°45'0 0.1
2018-Jul-19 12:59N 54°39' E 019°45'0 0.0
2018-Jul-19 12:29N 54°39' E 019°45'0 0.1
2018-Jul-19 11:59N 54°39' E 019°46'0 0.1
2018-Jul-19 11:26N 54°39' E 019°45'0 0.0
2018-Jul-19 11:00N 54°39' E 019°45'0 0.4
2018-Jul-19 10:30N 54°39' E 019°45'3 5.9
2018-Jul-19 10:01N 54°40' E 019°41'918.0
2018-Jul-19 09:30N 54°48' E 019°37'1019.8
2018-Jul-19 09:01N 54°58' E 019°37'919.0
2018-Jul-19 08:31N 55°07' E 019°42'1019.8
2018-Jul-19 08:00N 55°16' E 019°50'1019.9
2018-Jul-19 07:30N 55°25' E 019°59'1019.7
2018-Jul-19 07:00N 55°33' E 020°08'1019.4
2018-Jul-19 06:30N 55°37' E 020°23'1019.7
2018-Jul-19 06:00N 55°41' E 020°39'1017.9
2018-Jul-19 05:28N 55°44' E 020°56'48 1.3
2018-Jul-17 16:38N 55°17' E 019°46'220.3
2018-Jul-17 16:30N 55°15' E 019°44'1020.6
2018-Jul-17 16:00N 55°07' E 019°32'1120.8
2018-Jul-17 15:30N 54°58' E 019°21'1020.9
2018-Jul-17 15:00N 54°50' E 019°11'1021.0
2018-Jul-17 14:30N 54°42' E 018°60'1020.3
2018-Jul-17 14:00N 54°33' E 018°50'713.6
2018-Jul-17 13:31N 54°32' E 018°39'4 7.7
2018-Jul-17 13:01N 54°32' E 018°32'1 1.7
2018-Jul-17 12:29N 54°33' E 018°31'0 0.0
2018-Jul-17 11:59N 54°33' E 018°31'0 0.0
2018-Jul-17 11:29N 54°33' E 018°31'0 0.0
2018-Jul-17 10:59N 54°33' E 018°31'0 0.0
2018-Jul-17 10:29N 54°33' E 018°31'0 0.0
2018-Jul-17 09:59N 54°33' E 018°31'0 0.0
2018-Jul-17 09:29N 54°33' E 018°31'0 0.0
2018-Jul-17 08:59N 54°33' E 018°31'0 0.0
2018-Jul-17 08:29N 54°33' E 018°31'0 0.0
2018-Jul-17 07:59N 54°33' E 018°31'0 0.0
2018-Jul-17 07:29N 54°33' E 018°31'0 0.0
2018-Jul-17 06:59N 54°33' E 018°31'0 0.0
2018-Jul-17 06:29N 54°33' E 018°31'0 0.0
2018-Jul-17 05:59N 54°33' E 018°31'0 0.0
2018-Jul-17 05:29N 54°33' E 018°31'0 0.0
2018-Jul-17 04:59N 54°33' E 018°31'0 0.0
2018-Jul-17 04:29N 54°33' E 018°31'0 0.0
2018-Jul-17 03:59N 54°33' E 018°31'0 0.0
2018-Jul-17 03:29N 54°33' E 018°31'0 0.0
2018-Jul-17 02:59N 54°33' E 018°31'0 0.1
2018-Jul-17 02:26N 54°33' E 018°31'0 0.1
2018-Jul-17 01:56N 54°33' E 018°31'0 0.0
2018-Jul-17 01:23N 54°33' E 018°31'0 0.0
2018-Jul-17 00:59N 54°33' E 018°31'0 0.0
2018-Jul-17 00:29N 54°33' E 018°31'0 0.0
2018-Jul-16 23:29N 54°33' E 018°31'0 0.0
2018-Jul-16 22:59N 54°33' E 018°31'0 0.0
2018-Jul-16 22:29N 54°33' E 018°31'0 0.0
2018-Jul-16 21:59N 54°33' E 018°31'0 0.0
2018-Jul-16 21:29N 54°33' E 018°31'0 0.0
2018-Jul-16 20:59N 54°33' E 018°31'0 0.0
2018-Jul-16 20:29N 54°33' E 018°31'0 0.0
2018-Jul-16 19:59N 54°33' E 018°31'0 0.0
2018-Jul-16 19:26N 54°33' E 018°31'0 0.0
2018-Jul-16 18:59N 54°33' E 018°31'0 0.0
2018-Jul-16 18:29N 54°33' E 018°31'0 0.0
2018-Jul-16 17:59N 54°33' E 018°31'0 0.0
2018-Jul-16 17:29N 54°33' E 018°31'0 0.0
2018-Jul-16 16:59N 54°33' E 018°31'0 0.0
2018-Jul-16 16:29N 54°33' E 018°31'0 0.0
2018-Jul-16 15:59N 54°33' E 018°31'0 0.0
2018-Jul-16 15:26N 54°33' E 018°31'0 0.0
2018-Jul-16 14:59N 54°33' E 018°31'0 0.0
2018-Jul-16 14:29N 54°33' E 018°31'0 0.0
2018-Jul-16 13:59N 54°33' E 018°31'0 0.0
2018-Jul-16 13:29N 54°33' E 018°31'0 0.0
2018-Jul-16 12:59N 54°33' E 018°31'0 0.0
2018-Jul-16 12:29N 54°33' E 018°31'0 0.0
2018-Jul-16 11:59N 54°33' E 018°31'0 0.0
2018-Jul-16 11:29N 54°33' E 018°31'0 0.0
2018-Jul-16 10:59N 54°33' E 018°31'0 0.0
2018-Jul-16 10:29N 54°33' E 018°31'0 0.0
2018-Jul-16 09:59N 54°33' E 018°31'0 0.0
2018-Jul-16 09:26N 54°33' E 018°31'0 0.0
2018-Jul-16 08:59N 54°33' E 018°31'0 0.0
2018-Jul-16 08:29N 54°33' E 018°31'0 0.0
2018-Jul-16 07:59N 54°33' E 018°31'0 0.0
2018-Jul-16 07:29N 54°33' E 018°31'0 0.0
2018-Jul-16 06:59N 54°33' E 018°31'0 0.0
2018-Jul-16 06:26N 54°33' E 018°31'0 0.0
2018-Jul-16 05:59N 54°33' E 018°31'0 0.0
2018-Jul-16 05:29N 54°33' E 018°31'0 0.0
2018-Jul-16 04:59N 54°33' E 018°31'0 0.0
2018-Jul-16 04:29N 54°33' E 018°31'0 0.0
2018-Jul-16 03:59N 54°33' E 018°31'0 0.0
2018-Jul-16 03:29N 54°33' E 018°31'0 0.0
2018-Jul-16 03:00N 54°33' E 018°31'0 0.5
2018-Jul-16 02:30N 54°32' E 018°31'2 3.9
2018-Jul-16 02:00N 54°32' E 018°34'3 6.2
2018-Jul-16 01:30N 54°32' E 018°40'3 6.6
2018-Jul-16 01:00N 54°32' E 018°45'611.1
2018-Jul-16 00:30N 54°36' E 018°53'611.9
2018-Jul-16 00:00N 54°41' E 018°58'510.0
2018-Jul-15 23:30N 54°46' E 018°58'713.7
2018-Jul-15 23:00N 54°50' E 018°49'714.1
2018-Jul-15 22:30N 54°55' E 018°39'713.9
2018-Jul-15 22:00N 54°58' E 018°29'714.1
2018-Jul-15 21:30N 54°58' E 018°17'714.1
2018-Jul-15 21:00N 54°58' E 018°04'714.2
2018-Jul-15 20:30N 54°58' E 017°52'714.5
2018-Jul-15 20:00N 54°57' E 017°40'714.7
2018-Jul-15 19:30N 54°54' E 017°28'714.7
2018-Jul-15 19:00N 54°52' E 017°15'714.9
2018-Jul-15 18:31N 54°51' E 017°03'714.5
2018-Jul-15 18:00N 54°49' E 016°50'714.4
2018-Jul-15 17:30N 54°48' E 016°38'714.4
2018-Jul-15 17:00N 54°46' E 016°26'714.5
2018-Jul-15 16:30N 54°45' E 016°13'714.4
2018-Jul-15 16:00N 54°44' E 016°01'714.3
2018-Jul-15 15:30N 54°43' E 015°49'714.4
2018-Jul-15 15:00N 54°42' E 015°37'714.4
2018-Jul-15 14:30N 54°41' E 015°24'714.4
2018-Jul-15 14:00N 54°40' E 015°12'714.7
2018-Jul-15 13:30N 54°39' E 014°59'714.7
2018-Jul-15 13:00N 54°38' E 014°47'714.8
2018-Jul-15 12:30N 54°37' E 014°34'1314.6
2018-Jul-15 11:37N 54°38' E 014°12'215.1
2018-Jul-15 11:28N 54°39' E 014°08'915.2
2018-Jul-15 10:54N 54°41' E 013°54'1215.5
2018-Jul-15 10:08N 54°45' E 013°34'215.1
2018-Jul-15 10:00N 54°45' E 013°31'714.7
2018-Jul-15 09:30N 54°45' E 013°18'1414.3
2018-Jul-15 08:32N 54°46' E 012°54'414.8
2018-Jul-15 08:17N 54°46' E 012°48'414.3
2018-Jul-15 08:00N 54°45' E 012°41'814.8
2018-Jul-15 07:30N 54°41' E 012°30'815.0
2018-Jul-15 06:58N 54°37' E 012°19'1113.9
2018-Jul-15 06:12N 54°27' E 012°12'313.5
2018-Jul-15 06:00N 54°25' E 012°09'815.0
2018-Jul-15 05:30N 54°25' E 011°56'714.7
2018-Jul-15 05:00N 54°26' E 011°43'715.0
2018-Jul-15 04:30N 54°29' E 011°32'714.6
2018-Jul-15 04:00N 54°32' E 011°21'714.7
2018-Jul-15 03:30N 54°35' E 011°09'714.1
2018-Jul-15 03:00N 54°36' E 010°57'714.5
2018-Jul-15 02:30N 54°40' E 010°47'713.8
2018-Jul-15 02:00N 54°47' E 010°49'715.0
2018-Jul-15 01:30N 54°54' E 010°52'714.1
2018-Jul-15 01:00N 55°00' E 010°59'714.6
2018-Jul-15 00:30N 55°07' E 010°59'713.6
2018-Jul-15 00:00N 55°13' E 011°06'815.9
2018-Jul-14 23:29N 55°21' E 011°02'7316.3
2018-Jul-14 19:00N 56°31' E 011°38'1619.1
2018-Jul-14 18:09N 56°45' E 011°52'319.5
2018-Jul-14 18:00N 56°48' E 011°50'1019.1
2018-Jul-14 17:28N 56°58' E 011°44'919.0
2018-Jul-14 17:00N 57°06' E 011°38'918.9
2018-Jul-14 16:30N 57°15' E 011°31'918.9
2018-Jul-14 16:00N 57°24' E 011°27'1020.2
2018-Jul-14 15:30N 57°31' E 011°14'1121.0
2018-Jul-14 15:00N 57°38' E 010°60'2121.3
2018-Jul-14 14:00N 57°54' E 010°32'1020.7
2018-Jul-14 13:30N 57°58' E 010°14'1121.4
2018-Jul-14 13:00N 57°57' E 009°54'1122.0
2018-Jul-14 12:30N 57°52' E 009°36'1122.1
2018-Jul-14 12:00N 57°46' E 009°18'1121.9
2018-Jul-14 11:30N 57°40' E 009°01'1121.5
2018-Jul-14 10:58N 57°35' E 008°42'1521.4
2018-Jul-14 10:18N 57°28' E 008°19'621.0
2018-Jul-14 10:00N 57°25' E 008°09'1720.0
2018-Jul-14 09:08N 57°14' E 007°44'5519.6
2018-Jul-14 06:20N 56°21' E 007°13'820.4
2018-Jul-14 05:57N 56°14' E 007°11'14320.1
2018-Jul-13 22:49N 53°52' E 007°49'411.8
2018-Jul-13 22:30N 53°52' E 007°55'815.9
2018-Jul-13 22:00N 53°48' E 008°08'816.7
2018-Jul-13 21:30N 53°43' E 008°18'612.4
2018-Jul-13 21:00N 53°38' E 008°26'4 8.0
2018-Jul-13 20:29N 53°36' E 008°31'0 0.1
2018-Jul-13 19:59N 53°36' E 008°31'0 0.0
2018-Jul-13 19:29N 53°36' E 008°31'0 0.0
2018-Jul-13 18:59N 53°36' E 008°31'0 0.0
2018-Jul-13 18:29N 53°36' E 008°31'0 0.0
2018-Jul-13 17:59N 53°36' E 008°31'0 0.0
2018-Jul-13 17:29N 53°36' E 008°31'0 0.0
2018-Jul-13 16:59N 53°36' E 008°31'0 0.0
2018-Jul-13 16:29N 53°36' E 008°31'0 0.0
2018-Jul-13 15:56N 53°36' E 008°31'0 0.0
2018-Jul-13 15:29N 53°36' E 008°31'0 0.0
2018-Jul-13 14:59N 53°36' E 008°31'0 0.0
2018-Jul-13 14:29N 53°36' E 008°31'0 0.0
2018-Jul-13 13:29N 53°36' E 008°31'0 0.0
2018-Jul-13 12:59N 53°36' E 008°31'0 0.0
2018-Jul-13 12:29N 53°36' E 008°31'0 0.0
2018-Jul-13 11:59N 53°36' E 008°31'0 0.0
2018-Jul-13 11:29N 53°36' E 008°31'0 0.1
2018-Jul-13 10:59N 53°36' E 008°31'1 2.2
2018-Jul-13 10:29N 53°35' E 008°32'0 0.0
2018-Jul-13 09:59N 53°35' E 008°32'0 0.0
2018-Jul-13 09:28N 53°35' E 008°32'0 0.0
2018-Jul-13 08:59N 53°35' E 008°32'0 0.0
2018-Jul-13 08:28N 53°35' E 008°32'0 0.0
2018-Jul-13 07:58N 53°35' E 008°32'0 0.0
2018-Jul-13 07:28N 53°35' E 008°32'0 0.0
2018-Jul-13 06:59N 53°35' E 008°32'0 0.0
2018-Jul-13 06:29N 53°35' E 008°32'0 0.0
2018-Jul-13 05:58N 53°35' E 008°32'0 0.0
2018-Jul-13 05:28N 53°35' E 008°32'0 0.0
2018-Jul-13 04:59N 53°35' E 008°32'0 0.0
2018-Jul-13 04:29N 53°35' E 008°32'0 0.0
2018-Jul-13 03:59N 53°35' E 008°32'0 0.0
2018-Jul-13 03:29N 53°35' E 008°32'0 0.0
2018-Jul-13 02:58N 53°35' E 008°32'0 0.0
2018-Jul-13 02:28N 53°35' E 008°32'0 0.0
2018-Jul-13 01:58N 53°35' E 008°32'0 0.0
2018-Jul-13 01:28N 53°35' E 008°32'0 0.0
2018-Jul-13 00:58N 53°35' E 008°32'0 0.0
2018-Jul-13 00:28N 53°35' E 008°32'0 0.1
2018-Jul-12 23:59N 53°35' E 008°32'0 0.1
2018-Jul-12 23:29N 53°35' E 008°32'0 0.0
2018-Jul-12 22:58N 53°35' E 008°32'0 0.0
2018-Jul-12 22:28N 53°35' E 008°32'0 0.0
2018-Jul-12 22:00N 53°35' E 008°32'0 0.0
2018-Jul-12 21:30N 53°35' E 008°32'0 0.6
2018-Jul-12 21:00N 53°35' E 008°32'510.2
2018-Jul-12 20:30N 53°38' E 008°26'917.6
2018-Jul-12 20:00N 53°44' E 008°15'917.5
2018-Jul-12 19:30N 53°50' E 008°04'815.3
2018-Jul-12 19:00N 53°52' E 007°51'510.7
2018-Jul-12 18:30N 53°53' E 007°43'816.1
2018-Jul-12 18:01N 53°54' E 007°29'1019.4
2018-Jul-12 17:30N 53°52' E 007°13'1019.5
2018-Jul-12 17:00N 53°50' E 006°57'1019.5
2018-Jul-12 16:29N 53°48' E 006°40'1019.8
2018-Jul-12 15:59N 53°46' E 006°24'1019.5
2018-Jul-12 15:30N 53°43' E 006°09'1119.6
2018-Jul-12 14:57N 53°40' E 005°51'919.8
2018-Jul-12 14:30N 53°37' E 005°37'1019.6
2018-Jul-12 14:01N 53°34' E 005°22'1019.7
2018-Jul-12 13:31N 53°31' E 005°06'1019.6
2018-Jul-12 13:01N 53°27' E 004°51'1118.4
2018-Jul-12 12:24N 53°19' E 004°38'919.6
2018-Jul-12 11:57N 53°11' E 004°31'919.5
2018-Jul-12 11:29N 53°03' E 004°24'919.4
2018-Jul-12 11:00N 52°55' E 004°17'1019.3
2018-Jul-12 10:31N 52°47' E 004°08'1019.5
2018-Jul-12 10:01N 52°39' E 003°59'1019.1
2018-Jul-12 09:30N 52°32' E 003°48'919.0
2018-Jul-12 09:01N 52°26' E 003°35'1019.0
2018-Jul-12 08:30N 52°18' E 003°28'919.0
2018-Jul-12 08:01N 52°08' E 003°26'918.9
2018-Jul-12 07:31N 51°59' E 003°24'918.0
2018-Jul-12 07:00N 51°50' E 003°19'613.1
2018-Jul-12 06:30N 51°44' E 003°15'510.3
2018-Jul-12 06:00N 51°40' E 003°12'815.3
2018-Jul-12 05:30N 51°32' E 003°08'714.5
2018-Jul-12 05:00N 51°27' E 002°60'713.5
2018-Jul-12 04:30N 51°24' E 003°09'918.1
2018-Jul-12 04:00N 51°25' E 003°24'918.5
2018-Jul-12 03:30N 51°26' E 003°38'714.4
2018-Jul-12 03:00N 51°21' E 003°47'713.4
2018-Jul-12 02:31N 51°23' E 003°57'3 6.4
2018-Jul-12 02:00N 51°23' E 004°02'611.8
2018-Jul-12 01:30N 51°24' E 004°12'5 9.2
2018-Jul-12 01:00N 51°20' E 004°16'3 5.2
2018-Jul-12 00:30N 51°18' E 004°16'0 0.0
2018-Jul-12 00:00N 51°18' E 004°16'0 0.0
2018-Jul-11 23:30N 51°18' E 004°16'0 0.0
2018-Jul-11 23:00N 51°18' E 004°16'0 0.0
2018-Jul-11 22:27N 51°18' E 004°16'0 0.0
2018-Jul-11 22:00N 51°18' E 004°16'0 0.0
2018-Jul-11 21:27N 51°18' E 004°16'0 0.0
2018-Jul-11 21:00N 51°18' E 004°16'0 0.0
2018-Jul-11 20:30N 51°18' E 004°16'0 0.0
2018-Jul-11 20:00N 51°18' E 004°16'0 0.0
2018-Jul-11 19:30N 51°18' E 004°16'0 0.0
2018-Jul-11 19:00N 51°18' E 004°16'  

Dump ship's entire track history